createdAt,value
2024-04-18T00:01:40.532Z,0.70
2024-04-18T00:04:07.899Z,0.70
2024-04-18T00:06:35.228Z,0.88
2024-04-18T00:09:03.044Z,0.70
2024-04-18T00:11:30.439Z,0.60
2024-04-18T00:13:57.734Z,0.80
2024-04-18T00:16:24.983Z,0.80
2024-04-18T00:18:52.286Z,0.68
2024-04-18T00:21:19.609Z,0.75
2024-04-18T00:23:46.913Z,0.50
2024-04-18T00:26:14.302Z,0.80
2024-04-18T00:28:41.731Z,0.63
2024-04-18T00:31:08.962Z,0.52
2024-04-18T00:33:37.386Z,0.70
2024-04-18T00:36:08.173Z,0.55
2024-04-18T00:38:35.422Z,0.60
2024-04-18T00:41:02.728Z,0.80
2024-04-18T00:43:32.982Z,0.60
2024-04-18T00:46:00.569Z,0.95
2024-04-18T00:48:30.550Z,0.77
2024-04-18T00:50:59.855Z,0.50
2024-04-18T00:53:30.076Z,0.60
2024-04-18T00:55:57.593Z,0.70
2024-04-18T00:58:24.934Z,0.60
2024-04-18T01:01:01.721Z,0.57
2024-04-18T01:03:29.826Z,0.70
2024-04-18T01:05:57.687Z,0.65
2024-04-18T01:08:24.938Z,0.70
2024-04-18T01:10:52.238Z,0.52
2024-04-18T01:13:19.472Z,0.63
2024-04-18T01:15:46.766Z,0.50
2024-04-18T01:18:14.164Z,0.60
2024-04-18T01:20:41.573Z,0.60
2024-04-18T01:23:08.823Z,0.70
2024-04-18T01:25:36.100Z,0.57
2024-04-18T01:28:03.333Z,0.57
2024-04-18T01:30:30.611Z,0.55
2024-04-18T01:32:57.920Z,0.60
2024-04-18T01:35:25.212Z,0.43
2024-04-18T01:37:52.473Z,0.50
2024-04-18T01:40:19.784Z,0.55
2024-04-18T01:42:49.761Z,0.50
2024-04-18T01:45:17.155Z,0.52
2024-04-18T01:47:46.225Z,0.60
2024-04-18T01:50:13.499Z,0.60
2024-04-18T01:52:41.073Z,0.75
2024-04-18T01:55:09.225Z,0.60
2024-04-18T01:57:37.663Z,0.70
2024-04-18T02:00:05.473Z,0.45
2024-04-18T02:02:32.714Z,0.50
2024-04-18T02:05:00.021Z,0.50
2024-04-18T02:07:27.416Z,0.50
2024-04-18T02:09:55.428Z,0.40
2024-04-18T02:12:22.728Z,0.50
2024-04-18T02:14:50.012Z,0.50
2024-04-18T02:17:17.286Z,0.60
2024-04-18T02:19:44.569Z,0.50
2024-04-18T02:22:12.576Z,0.75
2024-04-18T02:25:02.473Z,0.52
2024-04-18T02:27:29.757Z,0.57
2024-04-18T02:29:57.010Z,0.60
2024-04-18T02:32:24.330Z,0.35
2024-04-18T02:34:51.629Z,0.57
2024-04-18T02:37:18.925Z,0.65
2024-04-18T02:39:46.251Z,0.50
2024-04-18T02:42:13.691Z,0.50
2024-04-18T02:44:40.970Z,0.60
2024-04-18T02:47:09.701Z,0.60
2024-04-18T02:49:37.033Z,0.45
2024-04-18T02:52:05.633Z,0.52
2024-04-18T02:54:32.879Z,0.55
2024-04-18T02:57:00.158Z,0.82
2024-04-18T02:59:27.450Z,0.30
2024-04-18T03:01:54.737Z,0.57
2024-04-18T03:04:21.974Z,0.60
2024-04-18T03:06:49.664Z,0.35
2024-04-18T03:09:17.219Z,0.40
2024-04-18T03:11:47.710Z,0.60
2024-04-18T03:14:14.975Z,0.60
2024-04-18T03:16:42.235Z,0.50
2024-04-18T03:19:13.187Z,0.35
2024-04-18T03:21:40.546Z,0.32
2024-04-18T03:24:20.490Z,0.68
2024-04-18T03:26:49.173Z,0.40
2024-04-18T03:29:16.500Z,0.60
2024-04-18T03:31:44.551Z,0.60
2024-04-18T03:34:14.179Z,0.40
2024-04-18T03:36:54.504Z,0.60
2024-04-18T03:39:22.382Z,0.60
2024-04-18T03:41:50.338Z,0.60
2024-04-18T03:44:18.313Z,0.50
2024-04-18T03:46:45.571Z,0.70
2024-04-18T03:49:12.911Z,0.43
2024-04-18T03:51:40.204Z,0.63
2024-04-18T03:54:07.451Z,0.50
2024-04-18T03:56:36.548Z,0.50
2024-04-18T03:59:03.839Z,0.60
2024-04-18T04:01:31.245Z,0.50
2024-04-18T04:04:01.320Z,0.40
2024-04-18T04:06:28.697Z,0.57
2024-04-18T04:08:55.992Z,0.40
2024-04-18T04:11:23.254Z,0.68
2024-04-18T04:13:50.635Z,0.65
2024-04-18T04:16:19.528Z,0.60
2024-04-18T04:18:51.683Z,0.40
2024-04-18T04:21:19.824Z,0.80
2024-04-18T04:23:47.559Z,0.60
2024-04-18T04:26:14.898Z,0.50
2024-04-18T04:28:42.145Z,0.40
2024-04-18T04:31:09.407Z,0.60
2024-04-18T04:33:36.671Z,0.70
2024-04-18T04:36:03.944Z,0.50
2024-04-18T04:38:31.214Z,0.43
2024-04-18T04:40:58.554Z,0.50
2024-04-18T04:43:28.721Z,0.68
2024-04-18T04:45:56.393Z,0.30
2024-04-18T04:48:23.832Z,0.73
2024-04-18T04:51:03.026Z,0.40
2024-04-18T04:53:30.335Z,0.57
2024-04-18T04:55:57.628Z,0.50
2024-04-18T04:58:24.908Z,0.60
2024-04-18T05:00:54.837Z,0.50
2024-04-18T05:03:22.613Z,0.60
2024-04-18T05:05:49.949Z,0.60
2024-04-18T05:08:18.760Z,0.90
2024-04-18T05:10:49.446Z,0.60
2024-04-18T05:13:17.080Z,0.70
2024-04-18T05:15:45.565Z,0.50
2024-04-18T05:18:12.967Z,0.50
2024-04-18T05:20:40.286Z,0.50
2024-04-18T05:23:08.581Z,0.60
2024-04-18T05:25:36.621Z,0.60
2024-04-18T05:28:15.611Z,0.52
2024-04-18T05:31:03.181Z,0.68
2024-04-18T05:33:31.574Z,0.57
2024-04-18T05:35:58.979Z,0.60
2024-04-18T05:38:26.866Z,0.60
2024-04-18T05:40:54.577Z,0.60
2024-04-18T05:43:21.889Z,0.40
2024-04-18T05:45:50.189Z,0.52
2024-04-18T05:48:19.464Z,0.60
2024-04-18T05:50:46.751Z,0.52
2024-04-18T05:53:13.999Z,0.50
2024-04-18T05:55:41.719Z,0.60
2024-04-18T05:58:09.009Z,0.55
2024-04-18T06:00:36.659Z,0.55
2024-04-18T06:03:04.733Z,0.60
2024-04-18T06:05:32.033Z,0.75
2024-04-18T06:07:59.305Z,0.50
2024-04-18T06:10:26.704Z,0.57
2024-04-18T06:12:54.078Z,0.70
2024-04-18T06:15:21.447Z,0.70
2024-04-18T06:17:48.866Z,0.70
2024-04-18T06:20:16.286Z,0.75
2024-04-18T06:22:43.552Z,0.70
2024-04-18T06:25:11.059Z,0.70
2024-04-18T06:27:40.623Z,0.90
2024-04-18T06:30:08.771Z,0.45
2024-04-18T06:32:36.122Z,0.50
2024-04-18T06:35:03.489Z,0.60
2024-04-18T06:37:33.392Z,0.40
2024-04-18T06:40:01.927Z,0.52
2024-04-18T06:42:29.555Z,0.80
2024-04-18T06:44:56.888Z,0.50
2024-04-18T06:47:24.220Z,0.70
2024-04-18T06:49:51.475Z,0.60
2024-04-18T06:52:23.635Z,0.38
2024-04-18T06:54:51.602Z,0.50
2024-04-18T06:57:18.925Z,0.60
2024-04-18T06:59:46.245Z,0.70
2024-04-18T07:02:13.519Z,0.52
2024-04-18T07:04:40.853Z,0.75
2024-04-18T07:07:17.796Z,0.60
2024-04-18T07:09:48.252Z,0.45
2024-04-18T07:12:16.852Z,0.65
2024-04-18T07:14:44.142Z,0.45
2024-04-18T07:17:11.512Z,0.80
2024-04-18T07:19:38.870Z,0.60
2024-04-18T07:22:06.228Z,0.45
2024-04-18T07:24:33.595Z,0.50
2024-04-18T07:27:00.968Z,0.45
2024-04-18T07:29:28.223Z,0.50
2024-04-18T07:31:55.597Z,0.40
2024-04-18T07:34:24.574Z,0.60
2024-04-18T07:36:51.943Z,0.68
2024-04-18T07:39:20.182Z,0.50
2024-04-18T07:41:49.488Z,0.60
2024-04-18T07:44:17.704Z,0.45
2024-04-18T07:46:46.015Z,0.60
2024-04-18T07:49:17.666Z,0.45
2024-04-18T07:51:46.010Z,0.40
2024-04-18T07:54:13.616Z,0.50
2024-04-18T07:56:41.564Z,0.32
2024-04-18T07:59:10.610Z,0.63
2024-04-18T08:01:39.958Z,0.50
2024-04-18T08:04:27.502Z,0.45
2024-04-18T08:06:58.459Z,0.35
2024-04-18T08:09:32.210Z,0.50
2024-04-18T08:12:22.476Z,0.60
2024-04-18T08:14:51.261Z,0.30
2024-04-18T08:17:21.260Z,0.67
2024-04-18T08:19:51.309Z,0.50
2024-04-18T08:22:19.846Z,0.47
2024-04-18T08:24:47.101Z,0.50
2024-04-18T08:27:17.221Z,0.55
2024-04-18T08:29:45.606Z,0.52
2024-04-18T08:32:12.976Z,0.40
2024-04-18T08:34:43.786Z,0.60
2024-04-18T08:37:13.659Z,0.50
2024-04-18T08:39:41.083Z,0.80
2024-04-18T08:42:12.262Z,0.70
2024-04-18T08:44:42.408Z,0.55
2024-04-18T08:47:10.563Z,0.50
2024-04-18T08:49:39.612Z,0.60
2024-04-18T08:52:08.206Z,0.50
2024-04-18T08:54:35.665Z,0.50
2024-04-18T08:57:06.409Z,0.45
2024-04-18T08:59:34.161Z,0.52
2024-04-18T09:02:02.362Z,0.55
2024-04-18T09:04:31.186Z,0.52
2024-04-18T09:06:58.520Z,0.50
2024-04-18T09:09:25.867Z,0.50
2024-04-18T09:11:54.896Z,0.60
2024-04-18T09:14:22.615Z,0.30
2024-04-18T09:16:49.949Z,0.85
2024-04-18T09:19:17.225Z,0.50
2024-04-18T09:21:44.578Z,0.57
2024-04-18T09:24:11.934Z,0.55
2024-04-18T09:26:39.210Z,0.60
2024-04-18T09:29:06.495Z,0.60
2024-04-18T09:31:38.573Z,0.70
2024-04-18T09:34:15.356Z,0.60
2024-04-18T09:36:45.453Z,0.50
2024-04-18T09:39:18.602Z,0.73
2024-04-18T09:41:51.749Z,0.63
2024-04-18T09:44:26.030Z,0.60
2024-04-18T09:46:55.467Z,0.55
2024-04-18T09:49:23.830Z,0.60
2024-04-18T09:51:51.639Z,0.80
2024-04-18T09:54:19.478Z,1.00
2024-04-18T09:56:48.022Z,0.85
2024-04-18T09:59:17.426Z,0.63
2024-04-18T10:01:44.817Z,0.98
2024-04-18T10:04:12.301Z,0.70
2024-04-18T10:06:41.681Z,0.80
2024-04-18T10:09:10.140Z,0.80
2024-04-18T10:11:38.381Z,0.80
2024-04-18T10:14:08.463Z,0.65
2024-04-18T10:16:49.987Z,0.70
2024-04-18T10:19:24.057Z,0.63
2024-04-18T10:22:10.847Z,0.60
2024-04-18T10:24:43.794Z,0.70
2024-04-18T10:27:17.000Z,0.70
2024-04-18T10:29:59.205Z,0.82
2024-04-18T10:32:30.492Z,0.60
2024-04-18T10:35:00.334Z,0.90
2024-04-18T10:37:27.666Z,0.60
2024-04-18T10:39:58.070Z,0.80
2024-04-18T10:42:26.369Z,0.60
2024-04-18T10:44:53.850Z,0.60
2024-04-18T10:47:22.342Z,0.70
2024-04-18T10:49:50.133Z,0.80
2024-04-18T10:52:18.457Z,0.80
2024-04-18T10:54:47.561Z,0.77
2024-04-18T10:57:21.179Z,0.85
2024-04-18T10:59:49.215Z,0.60
2024-04-18T11:02:16.701Z,0.50
2024-04-18T11:04:44.077Z,0.70
2024-04-18T11:07:12.414Z,0.52
2024-04-18T11:09:42.200Z,0.82
2024-04-18T11:12:10.059Z,0.68
2024-04-18T11:14:37.695Z,0.70
2024-04-18T11:17:05.091Z,0.40
2024-04-18T11:19:32.503Z,0.80
2024-04-18T11:22:03.645Z,0.70
2024-04-18T11:24:31.078Z,0.70
2024-04-18T11:26:58.696Z,0.60
2024-04-18T11:29:28.660Z,0.68
2024-04-18T11:32:07.515Z,0.68
2024-04-18T11:34:34.822Z,0.80
2024-04-18T11:37:04.758Z,0.60
2024-04-18T11:39:32.886Z,0.60
2024-04-18T11:42:01.755Z,0.68
2024-04-18T11:44:30.649Z,0.60
2024-04-18T11:46:58.076Z,0.95
2024-04-18T11:49:25.760Z,0.70
2024-04-18T11:51:55.710Z,0.90
2024-04-18T11:54:23.007Z,0.77
2024-04-18T11:56:50.315Z,0.47
2024-04-18T11:59:18.161Z,0.60
2024-04-18T12:01:48.053Z,0.40
2024-04-18T12:04:15.467Z,0.57
2024-04-18T12:06:42.880Z,0.47
2024-04-18T12:09:10.206Z,0.55
2024-04-18T12:11:38.820Z,0.70
2024-04-18T12:14:06.856Z,0.68
2024-04-18T12:16:34.685Z,0.63
2024-04-18T12:19:01.962Z,0.50
2024-04-18T12:21:32.142Z,0.70
2024-04-18T12:23:59.498Z,0.60
2024-04-18T12:26:26.817Z,0.50
2024-04-18T12:28:54.206Z,0.70
2024-04-18T12:31:21.460Z,0.70
2024-04-18T12:33:48.777Z,0.60
2024-04-18T12:36:17.389Z,0.60
2024-04-18T12:38:46.180Z,0.43
2024-04-18T12:41:13.644Z,0.75
2024-04-18T12:43:41.776Z,0.75
2024-04-18T12:46:15.271Z,0.77
2024-04-18T12:48:49.620Z,0.60
2024-04-18T12:51:17.077Z,0.68
2024-04-18T12:53:44.524Z,0.93
2024-04-18T12:56:11.770Z,0.70
2024-04-18T12:58:41.854Z,0.80
2024-04-18T13:01:12.644Z,0.55
2024-04-18T13:03:46.232Z,0.50
2024-04-18T13:06:13.732Z,0.60
2024-04-18T13:08:41.267Z,0.57
2024-04-18T13:11:08.562Z,0.70
2024-04-18T13:13:40.035Z,0.70
2024-04-18T13:16:07.513Z,0.75
2024-04-18T13:18:35.804Z,0.63
2024-04-18T13:21:03.144Z,0.90
2024-04-18T13:23:30.469Z,0.75
2024-04-18T13:25:57.812Z,0.70
2024-04-18T13:28:25.099Z,0.60
2024-04-18T13:30:52.356Z,0.77
2024-04-18T13:33:21.717Z,0.68
2024-04-18T13:35:49.162Z,0.90
2024-04-18T13:38:16.400Z,0.52
2024-04-18T13:40:43.701Z,0.60
2024-04-18T13:43:12.491Z,0.80
2024-04-18T13:45:39.877Z,0.80
2024-04-18T13:48:13.066Z,0.70
2024-04-18T13:50:40.776Z,0.60
2024-04-18T13:53:08.060Z,0.60
2024-04-18T13:55:35.348Z,0.70
2024-04-18T13:58:02.629Z,0.68
2024-04-18T14:00:30.852Z,0.82
2024-04-18T14:03:00.833Z,0.60
2024-04-18T14:05:28.126Z,0.80
2024-04-18T14:07:55.394Z,0.70
2024-04-18T14:10:22.671Z,0.70
2024-04-18T14:12:49.950Z,0.73
2024-04-18T14:15:37.023Z,0.70
2024-04-18T14:18:26.089Z,0.60
2024-04-18T14:20:54.457Z,0.60
2024-04-18T14:23:21.684Z,1.02
2024-04-18T14:25:49.264Z,0.57
2024-04-18T14:28:24.036Z,0.68
2024-04-18T14:31:01.878Z,0.70
2024-04-18T14:33:38.351Z,0.50
2024-04-18T14:36:08.645Z,0.80
2024-04-18T14:38:36.014Z,0.90
2024-04-18T14:41:09.900Z,0.60
2024-04-18T14:43:39.542Z,0.63
2024-04-18T14:46:06.940Z,1.08
2024-04-18T14:48:35.733Z,0.90
2024-04-18T14:51:03.079Z,1.00
2024-04-18T14:53:30.424Z,0.75
2024-04-18T14:55:57.727Z,0.73
2024-04-18T14:58:25.033Z,0.70
2024-04-18T15:00:56.550Z,0.70
2024-04-18T15:03:23.990Z,0.77
2024-04-18T15:05:57.533Z,0.63
2024-04-18T15:08:25.274Z,0.98
2024-04-18T15:10:53.314Z,0.60
2024-04-18T15:13:20.622Z,0.70
2024-04-18T15:15:48.014Z,0.90
2024-04-18T15:18:15.523Z,0.70
2024-04-18T15:20:42.848Z,0.70
2024-04-18T15:23:11.311Z,0.80
2024-04-18T15:25:38.674Z,0.65
2024-04-18T15:28:06.695Z,0.70
2024-04-18T15:30:34.154Z,0.60
2024-04-18T15:33:01.507Z,0.90
2024-04-18T15:35:28.806Z,0.73
2024-04-18T15:37:56.083Z,0.77
2024-04-18T15:40:23.374Z,0.90
2024-04-18T15:42:50.693Z,0.90
2024-04-18T15:45:17.962Z,0.60
2024-04-18T15:47:45.285Z,0.90
2024-04-18T15:50:12.624Z,1.00
2024-04-18T15:52:39.978Z,0.73
2024-04-18T15:55:15.449Z,0.90
2024-04-18T15:57:47.248Z,0.70
2024-04-18T16:00:14.681Z,0.75
2024-04-18T16:02:42.103Z,0.65
2024-04-18T16:05:09.395Z,1.00
2024-04-18T16:07:36.641Z,0.80
2024-04-18T16:10:04.776Z,0.70
2024-04-18T16:12:33.353Z,0.70
2024-04-18T16:15:02.268Z,0.80
2024-04-18T16:17:29.648Z,0.90
2024-04-18T16:19:56.974Z,1.00
2024-04-18T16:22:24.851Z,0.80
2024-04-18T16:24:53.216Z,0.75
2024-04-18T16:27:20.588Z,0.70
2024-04-18T16:29:47.872Z,0.60
2024-04-18T16:32:15.133Z,0.80
2024-04-18T16:34:42.450Z,0.73
2024-04-18T16:37:13.288Z,0.93
2024-04-18T16:39:44.189Z,0.70
2024-04-18T16:42:12.560Z,0.60
2024-04-18T16:44:39.840Z,0.90
2024-04-18T16:47:07.067Z,0.70
2024-04-18T16:49:34.344Z,0.80
2024-04-18T16:52:01.602Z,0.68
2024-04-18T16:54:30.486Z,0.73
2024-04-18T16:56:57.856Z,0.60
2024-04-18T16:59:25.176Z,0.85
2024-04-18T17:01:52.414Z,0.93
2024-04-18T17:04:19.848Z,0.65
2024-04-18T17:06:49.034Z,1.00
2024-04-18T17:09:20.210Z,0.73
2024-04-18T17:11:47.772Z,1.00
2024-04-18T17:14:15.604Z,0.95
2024-04-18T17:16:42.949Z,0.80
2024-04-18T17:19:13.615Z,0.63
2024-04-18T17:21:42.868Z,0.80
2024-04-18T17:24:10.215Z,0.75
2024-04-18T17:26:37.884Z,1.00
2024-04-18T17:29:05.177Z,0.80
2024-04-18T17:31:34.167Z,1.00
2024-04-18T17:34:01.491Z,0.77
2024-04-18T17:36:28.784Z,0.60
2024-04-18T17:38:56.282Z,0.63
2024-04-18T17:41:24.033Z,0.70
2024-04-18T17:43:51.308Z,0.82
2024-04-18T17:46:18.551Z,0.90
2024-04-18T17:48:46.173Z,0.70
2024-04-18T17:51:15.070Z,0.77
2024-04-18T17:53:42.360Z,0.70
2024-04-18T17:56:09.595Z,0.85
2024-04-18T17:58:36.863Z,0.90
2024-04-18T18:01:04.188Z,0.98
2024-04-18T18:03:31.671Z,0.65
2024-04-18T18:06:00.727Z,0.73
2024-04-18T18:08:28.167Z,0.82
2024-04-18T18:10:55.516Z,0.93
2024-04-18T18:13:23.635Z,0.80
2024-04-18T18:15:50.996Z,0.60
2024-04-18T18:18:18.381Z,1.00
2024-04-18T18:20:45.778Z,1.02
2024-04-18T18:23:16.226Z,1.00
2024-04-18T18:25:44.015Z,0.90
2024-04-18T18:28:11.266Z,0.60
2024-04-18T18:30:40.177Z,0.90
2024-04-18T18:33:07.782Z,0.75
2024-04-18T18:35:35.092Z,0.60
2024-04-18T18:38:02.355Z,0.70
2024-04-18T18:40:32.013Z,0.60
2024-04-18T18:43:01.769Z,0.93
2024-04-18T18:45:29.164Z,0.70
2024-04-18T18:47:56.678Z,5.30
2024-04-18T18:50:24.047Z,4.72
2024-04-18T18:52:51.419Z,4.65
2024-04-18T18:55:18.708Z,4.95
2024-04-18T18:57:48.629Z,3.83
2024-04-18T19:00:18.075Z,4.30
2024-04-18T19:02:46.913Z,4.32
2024-04-18T19:05:17.007Z,3.97
2024-04-18T19:07:44.258Z,4.25
2024-04-18T19:10:11.941Z,3.28
2024-04-18T19:12:39.227Z,3.78
2024-04-18T19:15:06.708Z,3.70
2024-04-18T19:17:37.924Z,3.10
2024-04-18T19:20:05.559Z,3.50
2024-04-18T19:22:32.825Z,2.92
2024-04-18T19:25:01.258Z,3.03
2024-04-18T19:27:28.516Z,3.00
2024-04-18T19:29:57.376Z,3.60
2024-04-18T19:32:26.228Z,3.00
2024-04-18T19:34:53.507Z,2.78
2024-04-18T19:37:20.762Z,2.60
2024-04-18T19:39:48.963Z,2.50
2024-04-18T19:42:17.893Z,2.60
2024-04-18T19:44:45.300Z,2.10
2024-04-18T19:47:12.982Z,2.42
2024-04-18T19:49:40.230Z,2.70
2024-04-18T19:52:08.711Z,2.42
2024-04-18T19:54:36.333Z,2.28
2024-04-18T19:57:04.369Z,2.10
2024-04-18T19:59:32.496Z,2.33
2024-04-18T20:01:59.827Z,2.00
2024-04-18T20:04:27.141Z,2.00
2024-04-18T20:06:54.712Z,2.03
2024-04-18T20:09:23.910Z,2.05
2024-04-18T20:11:51.212Z,2.15
2024-04-18T20:14:18.483Z,2.05
2024-04-18T20:16:46.048Z,1.80
2024-04-18T20:19:14.504Z,1.92
2024-04-18T20:21:45.057Z,1.45
2024-04-18T20:24:13.693Z,2.20
2024-04-18T20:26:41.037Z,1.70
2024-04-18T20:29:10.995Z,1.52
2024-04-18T20:31:38.314Z,1.70
2024-04-18T20:34:07.098Z,1.83
2024-04-18T20:36:34.413Z,1.60
2024-04-18T20:39:01.705Z,1.73
2024-04-18T20:41:33.236Z,1.63
2024-04-18T20:44:00.533Z,1.73
2024-04-18T20:46:31.284Z,1.60
2024-04-18T20:48:58.897Z,1.33
2024-04-18T20:51:26.243Z,1.40
2024-04-18T20:53:53.498Z,1.30
2024-04-18T20:56:20.754Z,1.48
2024-04-18T20:58:47.997Z,1.38
2024-04-18T21:01:15.417Z,1.20
2024-04-18T21:03:42.931Z,1.50
2024-04-18T21:06:10.279Z,1.60
2024-04-18T21:08:38.282Z,1.38
2024-04-18T21:11:05.580Z,1.40
2024-04-18T21:13:32.857Z,1.42
2024-04-18T21:16:01.136Z,1.30
2024-04-18T21:18:29.152Z,1.40
2024-04-18T21:20:57.249Z,1.30
2024-04-18T21:23:24.538Z,1.33
2024-04-18T21:25:51.962Z,1.20
2024-04-18T21:28:19.268Z,1.50
2024-04-18T21:30:46.586Z,1.23
2024-04-18T21:33:14.072Z,1.25
2024-04-18T21:35:41.421Z,0.80
2024-04-18T21:38:10.054Z,0.93
2024-04-18T21:40:39.166Z,0.90
2024-04-18T21:43:06.449Z,1.00
2024-04-18T21:45:33.987Z,1.00
2024-04-18T21:48:01.420Z,1.00
2024-04-18T21:50:28.764Z,0.88
2024-04-18T21:52:56.064Z,0.70
2024-04-18T21:55:23.440Z,0.98
2024-04-18T21:57:50.778Z,1.00
2024-04-18T22:00:18.996Z,0.80
2024-04-18T22:02:46.417Z,1.05
2024-04-18T22:05:13.674Z,1.00
2024-04-18T22:07:41.002Z,0.60
2024-04-18T22:10:08.735Z,1.00
2024-04-18T22:12:36.015Z,0.80
2024-04-18T22:15:03.861Z,0.63
2024-04-18T22:17:31.123Z,0.90
2024-04-18T22:19:58.583Z,0.70
2024-04-18T22:22:25.866Z,0.88
2024-04-18T22:24:53.168Z,0.70
2024-04-18T22:27:20.469Z,0.70
2024-04-18T22:29:47.782Z,0.65
2024-04-18T22:32:15.085Z,0.80
2024-04-18T22:34:43.909Z,0.63
2024-04-18T22:37:11.236Z,0.60
2024-04-18T22:39:38.834Z,0.90
2024-04-18T22:42:06.529Z,0.50
2024-04-18T22:44:33.785Z,0.70
2024-04-18T22:47:01.183Z,0.68
2024-04-18T22:49:28.521Z,0.90
2024-04-18T22:51:55.824Z,0.50
2024-04-18T22:54:23.128Z,0.70
2024-04-18T22:56:50.398Z,0.68
2024-04-18T22:59:17.647Z,0.57
2024-04-18T23:01:45.015Z,0.70
2024-04-18T23:04:12.612Z,0.70
2024-04-18T23:06:40.075Z,0.75
2024-04-18T23:09:07.569Z,0.80
2024-04-18T23:11:34.823Z,0.50
2024-04-18T23:14:02.141Z,0.68
2024-04-18T23:16:29.458Z,0.63
2024-04-18T23:18:56.727Z,0.63
2024-04-18T23:21:24.019Z,0.52
2024-04-18T23:23:51.388Z,0.68
2024-04-18T23:26:18.763Z,0.88
2024-04-18T23:28:46.099Z,0.60
2024-04-18T23:31:13.393Z,0.80
2024-04-18T23:33:40.698Z,0.60
2024-04-18T23:36:08.084Z,0.60
2024-04-18T23:38:35.361Z,0.40
2024-04-18T23:41:03.426Z,0.85
2024-04-18T23:43:30.686Z,0.60
2024-04-18T23:45:58.067Z,0.68
2024-04-18T23:48:25.462Z,0.75
2024-04-18T23:50:52.791Z,0.60
2024-04-18T23:53:20.047Z,0.70
2024-04-18T23:55:47.351Z,0.50
2024-04-18T23:58:14.616Z,0.50
